This is the latest recevied weather packets stored in our database for station/object SV4JYD-14. If no packets are shown the sender has not sent any weather packets the latest 10 day(s).
| Time | Temp. | Humidity | Pressure | Rain* | Wind** | Luminosity | Snow |
|---|---|---|---|---|---|---|---|
| 1777212624 | 22.78° C | 46% | 1013 hPa | 0 mm | - | - | - |
| 1777211724 | 22.22° C | 45% | 1013 hPa | 0 mm | - | - | - |
| 1777210824 | 24.44° C | 36% | 1013 hPa | 0 mm | - | - | - |
| 1777209923 | 23.33° C | 38% | 1013 hPa | 0 mm | - | - | - |
| 1777209023 | 23.33° C | 38% | 1013 hPa | 0 mm | - | - | - |
| 1777208123 | 22.22° C | 43% | 1013 hPa | 0 mm | - | - | - |
| 1777207223 | 22.22° C | 43% | 1013 hPa | 0 mm | - | - | - |
| 1777206322 | 21.67° C | 46% | 1013 hPa | 0 mm | - | - | - |
| 1777205422 | 22.22° C | 39% | 1014 hPa | 0 mm | - | - | - |
| 1777204522 | 21.67° C | 39% | 1014 hPa | 0 mm | - | - | - |
| 1777203622 | 21.67° C | 41% | 1014 hPa | 0 mm | - | - | - |
| 1777202721 | 22.22° C | 37% | 1014 hPa | 0 mm | - | - | - |
| 1777201821 | 22.22° C | 38% | 1014 hPa | 0 mm | - | - | - |
| 1777200921 | 21.11° C | 42% | 1014 hPa | 0 mm | - | - | - |
| 1777200021 | 21.67° C | 41% | 1014 hPa | 0 mm | - | - | - |
| 1777199120 | 21.67° C | 42% | 1014 hPa | 0 mm | - | - | - |
| 1777198220 | 21.11° C | 44% | 1014 hPa | 0 mm | - | - | - |
| 1777197320 | 20° C | 52% | 1014 hPa | 0 mm | - | - | - |
| 1777196420 | 19.44° C | 60% | 1014 hPa | 0 mm | - | - | - |
| 1777195519 | 18.89° C | 60% | 1014 hPa | 0 mm | - | - | - |
| 1777194619 | 18.33° C | 66% | 1015 hPa | 0 mm | - | - | - |
| 1777193719 | 18.89° C | 66% | 1014 hPa | 0 mm | - | - | - |
| 1777192818 | 20° C | 66% | 1014 hPa | 0 mm | - | - | - |
| 1777191918 | 19.44° C | 65% | 1014 hPa | 0 mm | - | - | - |
| 1777191018 | 19.44° C | 66% | 1015 hPa | 0 mm | - | - | - |
* Rain latest hour (hover to see other rain measurements)
** Current wind speed in m/s (hover to see current wind gust speed)